Time;durP1;ratioP1;P1;durP2;ratioP2;P2;SDS_P1;SDS_P2;PMS_P1;PMS_P2;Temp;Humidity;BMP_temperature;BMP_pressure;BME280_temperature;BME280_humidity;BME280_pressure;Samples;Min_cycle;Max_cycle;Signal;HPM_P1;HPM_P2
2022/12/02 00:00:18;;;;;;;;;75.67;55.33;;;;;;;;5095324;27;45491;-63
2022/12/02 00:02:44;;;;;;;;;81.33;54.67;;;;;;;;5095642;27;45327;-63
2022/12/02 00:05:09;;;;;;;;;71.00;52.33;;;;;;;;5095419;27;45837;-62
2022/12/02 00:07:35;;;;;;;;;65.33;49.67;;;;;;;;5095315;27;45692;-62
2022/12/02 00:10:00;;;;;;;;;70.33;53.33;;;;;;;;5095235;27;45684;-62
2022/12/02 00:12:27;;;;;;;;;71.00;48.00;;;;;;;;5095617;27;45556;-62
2022/12/02 00:15:12;;;;;;;;;69.00;54.00;;;;;;;;5095549;27;45794;-63
2022/12/02 00:17:37;;;;;;;;;67.33;48.33;;;;;;;;5095009;27;45858;-62
2022/12/02 00:20:02;;;;;;;;;72.33;52.00;;;;;;;;5094678;27;45613;-63
2022/12/02 00:22:27;;;;;;;;;71.33;51.33;;;;;;;;5095475;27;45322;-63
2022/12/02 00:24:53;;;;;;;;;64.00;48.00;;;;;;;;5095747;27;45249;-62
2022/12/02 00:27:18;;;;;;;;;60.67;47.67;;;;;;;;5094746;27;47419;-63
2022/12/02 00:29:43;;;;;;;;;73.33;55.33;;;;;;;;5094866;27;45369;-63
2022/12/02 00:32:08;;;;;;;;;65.33;50.67;;;;;;;;5095133;27;45740;-63
2022/12/02 00:34:33;;;;;;;;;76.00;56.67;;;;;;;;5095547;27;45490;-63
2022/12/02 00:36:59;;;;;;;;;76.00;52.00;;;;;;;;5094740;27;45656;-63
2022/12/02 00:39:24;;;;;;;;;52.33;40.00;;;;;;;;5094969;27;45362;-63
2022/12/02 00:41:49;;;;;;;;;66.33;49.00;;;;;;;;5095252;27;45433;-63
2022/12/02 00:46:58;;;;;;;;;71.33;51.67;;;;;;;;5094788;27;45880;-63
2022/12/02 00:49:24;;;;;;;;;65.67;51.67;;;;;;;;5094961;27;45412;-62
2022/12/02 00:51:49;;;;;;;;;62.00;48.67;;;;;;;;5094839;27;45429;-62
2022/12/02 00:54:14;;;;;;;;;62.33;48.33;;;;;;;;5094777;27;45440;-63
2022/12/02 00:56:39;;;;;;;;;69.67;52.67;;;;;;;;5094663;27;46597;-63
2022/12/02 00:59:04;;;;;;;;;73.33;50.33;;;;;;;;5094791;27;45382;-63
2022/12/02 01:01:30;;;;;;;;;73.67;53.00;;;;;;;;5095069;27;45883;-62
2022/12/02 01:03:55;;;;;;;;;62.67;47.67;;;;;;;;5094749;27;45346;-63
2022/12/02 01:06:21;;;;;;;;;59.67;46.00;;;;;;;;5113917;27;46259;-62
2022/12/02 01:08:46;;;;;;;;;70.33;50.33;;;;;;;;5114974;27;45406;-62
2022/12/02 01:11:12;;;;;;;;;68.00;49.67;;;;;;;;5115451;27;45364;-62
2022/12/02 01:13:37;;;;;;;;;69.33;52.33;;;;;;;;5115544;27;45760;-63
2022/12/02 01:16:03;;;;;;;;;64.67;47.00;;;;;;;;5114978;27;45651;-62
2022/12/02 01:18:28;;;;;;;;;68.00;49.00;;;;;;;;5115107;27;45710;-62
2022/12/02 01:20:53;;;;;;;;;67.67;50.00;;;;;;;;5114857;27;45398;-62
2022/12/02 01:23:19;;;;;;;;;66.33;50.33;;;;;;;;5115458;27;45470;-62
2022/12/02 01:25:44;;;;;;;;;66.00;48.00;;;;;;;;5115007;27;46425;-62
2022/12/02 01:28:09;;;;;;;;;63.67;47.00;;;;;;;;5114924;27;45380;-62
2022/12/02 01:30:35;;;;;;;;;63.00;52.00;;;;;;;;5115260;27;45489;-63
2022/12/02 01:33:00;;;;;;;;;69.67;51.00;;;;;;;;5115077;27;45675;-62
2022/12/02 01:35:25;;;;;;;;;63.00;48.67;;;;;;;;5114732;27;46395;-63
2022/12/02 01:37:50;;;;;;;;;64.00;47.67;;;;;;;;5114941;27;45379;-63
2022/12/02 01:40:17;;;;;;;;;54.67;43.00;;;;;;;;5114953;27;45573;-63
2022/12/02 01:42:43;;;;;;;;;58.33;38.67;;;;;;;;5116963;27;45739;-63
2022/12/02 01:45:08;;;;;;;;;69.00;53.00;;;;;;;;5117939;27;46175;-63
2022/12/02 01:47:34;;;;;;;;;59.33;47.67;;;;;;;;5118111;27;45452;-63
2022/12/02 01:50:00;;;;;;;;;50.33;43.67;;;;;;;;5118400;27;45405;-63
2022/12/02 01:52:25;;;;;;;;;66.67;47.67;;;;;;;;5118429;27;45389;-63
2022/12/02 01:54:50;;;;;;;;;57.00;43.67;;;;;;;;5118070;27;46343;-63
2022/12/02 01:57:24;;;;;;;;;60.33;42.67;;;;;;;;5117917;27;45405;-63
2022/12/02 01:59:50;;;;;;;;;60.00;43.00;;;;;;;;5118102;27;45488;-63
2022/12/02 02:02:29;;;;;;;;;61.67;45.67;;;;;;;;5118174;27;45389;-63
2022/12/02 02:04:55;;;;;;;;;61.00;45.67;;;;;;;;5117909;27;46984;-63
2022/12/02 02:07:21;;;;;;;;;52.00;43.67;;;;;;;;5117770;27;45397;-63
2022/12/02 02:09:47;;;;;;;;;55.00;42.33;;;;;;;;5118063;27;45433;-63
2022/12/02 02:12:12;;;;;;;;;55.67;44.00;;;;;;;;5118176;27;45782;-63
2022/12/02 02:14:37;;;;;;;;;70.67;48.67;;;;;;;;5117514;27;45846;-63
2022/12/02 02:17:02;;;;;;;;;64.33;45.33;;;;;;;;5117766;27;45261;-63
2022/12/02 02:19:27;;;;;;;;;63.33;49.33;;;;;;;;5117578;27;45379;-63
2022/12/02 02:21:54;;;;;;;;;60.67;44.67;;;;;;;;5118139;27;45505;-62
2022/12/02 02:24:19;;;;;;;;;67.33;50.33;;;;;;;;5117743;27;46663;-62
2022/12/02 02:26:44;;;;;;;;;65.00;47.33;;;;;;;;5117256;27;45369;-63
2022/12/02 02:29:09;;;;;;;;;59.33;39.33;;;;;;;;5117808;27;45413;-63
2022/12/02 02:31:35;;;;;;;;;63.33;47.33;;;;;;;;5117832;27;45613;-63
2022/12/02 02:34:00;;;;;;;;;58.33;44.67;;;;;;;;5117629;27;45938;-62
2022/12/02 02:36:25;;;;;;;;;58.33;45.00;;;;;;;;5117297;27;45505;-62
2022/12/02 02:38:51;;;;;;;;;60.00;42.33;;;;;;;;5117288;27;45743;-63
2022/12/02 02:41:16;;;;;;;;;59.67;45.33;;;;;;;;5117905;27;45421;-62
2022/12/02 02:43:42;;;;;;;;;61.33;43.67;;;;;;;;5117185;27;46461;-62
2022/12/02 02:46:07;;;;;;;;;63.67;46.33;;;;;;;;5117499;27;45378;-63
2022/12/02 02:48:33;;;;;;;;;63.00;46.00;;;;;;;;5117430;27;45433;-63
2022/12/02 02:50:58;;;;;;;;;60.33;45.33;;;;;;;;5117565;27;45399;-63
2022/12/02 02:53:24;;;;;;;;;57.67;43.67;;;;;;;;5116793;27;45706;-63
2022/12/02 02:55:50;;;;;;;;;56.67;41.33;;;;;;;;5117135;27;45455;-63
2022/12/02 02:58:17;;;;;;;;;64.33;47.00;;;;;;;;5117273;27;45608;-63
2022/12/02 03:00:44;;;;;;;;;56.67;42.33;;;;;;;;5117202;27;45305;-63
2022/12/02 03:03:11;;;;;;;;;64.33;43.33;;;;;;;;5116748;27;45411;-63
2022/12/02 03:05:36;;;;;;;;;61.00;46.67;;;;;;;;5117161;27;46001;-62
2022/12/02 03:08:02;;;;;;;;;70.00;48.00;;;;;;;;5116797;27;45457;-63
2022/12/02 03:10:27;;;;;;;;;63.33;46.00;;;;;;;;5117337;27;45464;-63
2022/12/02 03:12:53;;;;;;;;;58.33;44.33;;;;;;;;5116721;27;46293;-62
2022/12/02 03:15:18;;;;;;;;;63.67;46.33;;;;;;;;5116773;27;45792;-63
2022/12/02 03:17:44;;;;;;;;;55.00;42.00;;;;;;;;5117112;27;45652;-63
2022/12/02 03:20:09;;;;;;;;;60.33;45.67;;;;;;;;5116691;27;45835;-63
2022/12/02 03:22:34;;;;;;;;;57.33;43.00;;;;;;;;5116757;27;45920;-62
2022/12/02 03:25:01;;;;;;;;;61.33;45.67;;;;;;;;5116671;27;45271;-63
2022/12/02 03:27:26;;;;;;;;;58.33;46.33;;;;;;;;5116615;27;45244;-63
2022/12/02 03:29:52;;;;;;;;;67.67;49.00;;;;;;;;5117178;27;45315;-63
2022/12/02 03:32:17;;;;;;;;;67.33;50.67;;;;;;;;5116329;27;46197;-63
2022/12/02 03:34:43;;;;;;;;;65.33;49.00;;;;;;;;5116876;27;45391;-63
2022/12/02 03:37:08;;;;;;;;;67.67;50.33;;;;;;;;5116304;27;45426;-63
2022/12/02 03:39:34;;;;;;;;;73.00;51.33;;;;;;;;5116692;27;45456;-63
2022/12/02 03:41:59;;;;;;;;;54.00;43.67;;;;;;;;5116645;27;46272;-63
2022/12/02 03:44:24;;;;;;;;;56.67;46.33;;;;;;;;5116135;27;45719;-63
2022/12/02 03:46:50;;;;;;;;;67.00;47.33;;;;;;;;5116841;27;45731;-62
2022/12/02 03:49:16;;;;;;;;;72.00;49.33;;;;;;;;5116353;27;45425;-63
2022/12/02 03:51:41;;;;;;;;;62.67;43.67;;;;;;;;5115998;27;45817;-62
2022/12/02 03:54:06;;;;;;;;;63.00;48.00;;;;;;;;5116484;27;45446;-62
2022/12/02 03:56:36;;;;;;;;;58.33;47.00;;;;;;;;5116011;27;45355;-63
2022/12/02 03:59:01;;;;;;;;;64.33;46.00;;;;;;;;5116613;27;45385;-62
2022/12/02 04:01:26;;;;;;;;;60.67;45.33;;;;;;;;5115985;27;47303;-63
2022/12/02 04:03:52;;;;;;;;;59.33;46.00;;;;;;;;5115956;27;45640;-62
2022/12/02 04:06:17;;;;;;;;;65.33;47.67;;;;;;;;5115388;27;45795;-62
2022/12/02 04:08:42;;;;;;;;;62.33;46.33;;;;;;;;5116067;27;45454;-62
2022/12/02 04:11:07;;;;;;;;;61.67;47.67;;;;;;;;5116135;27;45627;-62
2022/12/02 04:13:33;;;;;;;;;59.33;48.00;;;;;;;;5115913;27;45272;-62
2022/12/02 04:15:58;;;;;;;;;63.33;49.00;;;;;;;;5116039;27;45721;-62
2022/12/02 04:18:23;;;;;;;;;60.33;46.00;;;;;;;;5116228;27;45672;-62
2022/12/02 04:20:48;;;;;;;;;59.00;43.33;;;;;;;;5115576;27;46317;-62
2022/12/02 04:23:14;;;;;;;;;60.00;46.33;;;;;;;;5115972;27;45361;-62
2022/12/02 04:25:39;;;;;;;;;67.33;48.33;;;;;;;;5115731;27;45360;-62
2022/12/02 04:28:04;;;;;;;;;66.00;48.67;;;;;;;;5116178;27;45509;-62
2022/12/02 04:30:29;;;;;;;;;65.67;47.00;;;;;;;;5115757;27;46174;-62
2022/12/02 04:32:54;;;;;;;;;65.00;48.67;;;;;;;;5115455;27;45375;-62
2022/12/02 04:35:20;;;;;;;;;63.00;46.67;;;;;;;;5115947;27;45321;-62
2022/12/02 04:37:45;;;;;;;;;60.00;43.00;;;;;;;;5115572;27;45533;-63
2022/12/02 04:40:10;;;;;;;;;61.33;47.33;;;;;;;;5115776;27;46125;-62
2022/12/02 04:42:36;;;;;;;;;62.33;47.33;;;;;;;;5109642;27;45379;-62
2022/12/02 04:45:01;;;;;;;;;63.67;43.00;;;;;;;;5104189;27;45738;-62
2022/12/02 04:47:26;;;;;;;;;55.67;41.00;;;;;;;;5097703;27;45379;-62
2022/12/02 04:49:52;;;;;;;;;60.67;44.33;;;;;;;;5103735;27;46475;-62
2022/12/02 04:52:17;;;;;;;;;58.67;43.00;;;;;;;;5094829;27;45790;-62
2022/12/02 04:54:42;;;;;;;;;56.33;46.67;;;;;;;;5094936;27;45385;-62
2022/12/02 04:57:07;;;;;;;;;66.33;49.33;;;;;;;;5095167;27;45563;-62
2022/12/02 04:59:33;;;;;;;;;69.00;49.00;;;;;;;;5094609;27;46587;-62
2022/12/02 05:01:58;;;;;;;;;61.67;45.33;;;;;;;;5094740;27;45486;-62
2022/12/02 05:04:24;;;;;;;;;58.00;46.00;;;;;;;;5095009;27;46200;-62
2022/12/02 05:06:49;;;;;;;;;57.00;45.67;;;;;;;;5095041;27;45587;-62
2022/12/02 05:09:14;;;;;;;;;67.67;48.00;;;;;;;;5094204;27;46572;-63
2022/12/02 05:11:39;;;;;;;;;57.67;43.67;;;;;;;;5094790;27;45327;-62
2022/12/02 05:14:04;;;;;;;;;61.33;45.00;;;;;;;;5094612;27;45382;-62
2022/12/02 05:16:29;;;;;;;;;66.33;46.67;;;;;;;;5096249;27;45306;-63
2022/12/02 05:18:55;;;;;;;;;59.00;42.00;;;;;;;;5097882;27;45615;-62
2022/12/02 05:21:20;;;;;;;;;61.33;42.00;;;;;;;;5097985;27;45699;-62
2022/12/02 05:23:45;;;;;;;;;59.00;41.33;;;;;;;;5098312;27;45428;-62
2022/12/02 05:26:11;;;;;;;;;51.33;44.00;;;;;;;;5098205;27;45840;-62
2022/12/02 05:28:36;;;;;;;;;56.33;43.33;;;;;;;;5097978;27;47159;-62
2022/12/02 05:31:01;;;;;;;;;58.33;42.00;;;;;;;;5097926;27;45441;-62
2022/12/02 05:33:26;;;;;;;;;61.33;46.00;;;;;;;;5097918;27;45421;-61
2022/12/02 05:35:52;;;;;;;;;59.00;46.00;;;;;;;;5098395;27;45407;-61
2022/12/02 05:38:17;;;;;;;;;58.00;43.67;;;;;;;;5097157;27;45715;-62
2022/12/02 05:40:42;;;;;;;;;55.33;36.67;;;;;;;;5098004;27;45329;-61
2022/12/02 05:43:16;;;;;;;;;63.00;49.33;;;;;;;;5097722;27;45354;-61
2022/12/02 05:45:41;;;;;;;;;58.00;42.67;;;;;;;;5098384;27;45480;-61
2022/12/02 05:48:09;;;;;;;;;53.00;41.00;;;;;;;;5097622;27;46224;-61
2022/12/02 05:50:35;;;;;;;;;58.67;43.00;;;;;;;;5097268;27;45401;-62
2022/12/02 05:53:00;;;;;;;;;55.33;42.67;;;;;;;;5097686;27;45386;-62
2022/12/02 05:55:26;;;;;;;;;56.33;43.00;;;;;;;;5097439;27;45300;-61
2022/12/02 05:57:53;;;;;;;;;58.33;39.67;;;;;;;;5097406;27;45697;-62
2022/12/02 06:00:20;;;;;;;;;65.67;50.67;;;;;;;;5097598;27;45392;-62
2022/12/02 06:02:46;;;;;;;;;56.67;40.67;;;;;;;;5097429;27;45433;-62
2022/12/02 06:05:14;;;;;;;;;58.67;43.00;;;;;;;;5097559;27;45343;-62
2022/12/02 06:07:39;;;;;;;;;65.33;48.00;;;;;;;;5097473;27;45784;-62
2022/12/02 06:10:15;;;;;;;;;59.00;45.67;;;;;;;;5097014;27;45321;-62
2022/12/02 06:12:40;;;;;;;;;57.67;42.00;;;;;;;;5097243;27;45371;-62
2022/12/02 06:15:11;;;;;;;;;58.00;43.33;;;;;;;;5097362;27;45716;-62
2022/12/02 06:17:37;;;;;;;;;64.00;50.67;;;;;;;;5096804;27;46664;-62
2022/12/02 06:20:04;;;;;;;;;62.33;49.33;;;;;;;;5096956;27;45324;-62
2022/12/02 06:22:31;;;;;;;;;61.67;44.00;;;;;;;;5097339;27;45406;-62
2022/12/02 06:24:58;;;;;;;;;58.67;40.67;;;;;;;;5097035;27;45420;-62
2022/12/02 06:27:24;;;;;;;;;59.33;45.67;;;;;;;;5096229;27;45761;-62
2022/12/02 06:29:51;;;;;;;;;58.33;42.00;;;;;;;;5096806;27;45431;-62
2022/12/02 06:32:18;;;;;;;;;60.33;43.33;;;;;;;;5110091;27;45470;-62
2022/12/02 06:34:44;;;;;;;;;54.67;44.67;;;;;;;;5117637;27;45387;-62
2022/12/02 06:37:13;;;;;;;;;63.33;49.00;;;;;;;;5117112;27;45445;-62
2022/12/02 06:39:39;;;;;;;;;78.00;57.00;;;;;;;;5117292;27;45422;-62
2022/12/02 06:42:13;;;;;;;;;62.00;49.33;;;;;;;;5117242;27;45417;-62
2022/12/02 06:47:32;;;;;;;;;66.00;49.00;;;;;;;;5116822;27;45744;-62
2022/12/02 06:50:11;;;;;;;;;60.00;43.67;;;;;;;;5117019;27;45404;-62
2022/12/02 06:52:40;;;;;;;;;57.33;40.67;;;;;;;;5117049;27;45330;-62
2022/12/02 06:55:10;;;;;;;;;63.00;46.67;;;;;;;;5117034;27;45802;-62
2022/12/02 06:57:35;;;;;;;;;55.67;44.00;;;;;;;;5116731;27;46365;-62
2022/12/02 07:00:01;;;;;;;;;69.33;50.67;;;;;;;;5117117;27;45413;-62
2022/12/02 07:02:29;;;;;;;;;64.00;45.33;;;;;;;;5117303;27;45298;-62
2022/12/02 07:04:54;;;;;;;;;60.33;47.00;;;;;;;;5117426;27;45259;-62
2022/12/02 07:07:21;;;;;;;;;65.00;49.33;;;;;;;;5116917;27;46720;-62
2022/12/02 07:09:47;;;;;;;;;67.33;47.67;;;;;;;;5116707;27;45413;-61
2022/12/02 07:12:18;;;;;;;;;69.33;52.67;;;;;;;;5116834;27;45790;-62
2022/12/02 07:14:43;;;;;;;;;65.00;47.33;;;;;;;;5116930;27;45790;-62
2022/12/02 07:17:20;;;;;;;;;71.33;52.00;;;;;;;;5116520;27;46341;-62
2022/12/02 07:19:47;;;;;;;;;70.67;46.33;;;;;;;;5116755;27;45446;-62
2022/12/02 07:22:23;;;;;;;;;70.00;52.67;;;;;;;;5116540;27;45763;-62
2022/12/02 07:24:51;;;;;;;;;66.00;49.67;;;;;;;;5116745;27;45397;-62
2022/12/02 07:27:21;;;;;;;;;59.33;45.67;;;;;;;;5116813;27;45769;-62
2022/12/02 07:29:48;;;;;;;;;63.33;48.00;;;;;;;;5116692;27;45739;-62
2022/12/02 07:32:13;;;;;;;;;69.67;50.33;;;;;;;;5116414;27;45575;-62
2022/12/02 07:34:38;;;;;;;;;69.33;51.33;;;;;;;;5116925;27;45450;-62
2022/12/02 07:37:03;;;;;;;;;65.00;47.00;;;;;;;;5116463;27;46821;-61
2022/12/02 07:39:28;;;;;;;;;74.00;52.33;;;;;;;;5115126;27;45733;-62
2022/12/02 07:41:54;;;;;;;;;62.33;47.33;;;;;;;;5116392;27;45328;-61
2022/12/02 07:44:19;;;;;;;;;67.00;49.33;;;;;;;;5116587;27;45361;-61
2022/12/02 07:46:44;;;;;;;;;66.00;49.33;;;;;;;;5116375;27;45729;-62
2022/12/02 07:49:09;;;;;;;;;71.00;50.67;;;;;;;;5116217;27;45631;-62
2022/12/02 07:51:34;;;;;;;;;67.67;48.00;;;;;;;;5116531;27;45718;-61
2022/12/02 07:54:00;;;;;;;;;70.33;49.33;;;;;;;;5116448;27;45602;-62
2022/12/02 07:56:25;;;;;;;;;66.00;50.00;;;;;;;;5115919;27;45445;-62
2022/12/02 07:58:50;;;;;;;;;72.33;51.67;;;;;;;;5116187;27;45482;-61
2022/12/02 08:01:15;;;;;;;;;66.00;51.67;;;;;;;;5116412;27;45673;-61
2022/12/02 08:03:41;;;;;;;;;64.33;48.00;;;;;;;;5116568;27;45299;-61
2022/12/02 08:06:06;;;;;;;;;74.33;49.67;;;;;;;;5115862;27;45777;-62
2022/12/02 08:08:32;;;;;;;;;72.67;51.33;;;;;;;;5116060;27;45331;-62
2022/12/02 08:10:57;;;;;;;;;70.33;51.00;;;;;;;;5115897;27;45712;-61
2022/12/02 08:13:22;;;;;;;;;68.00;49.33;;;;;;;;5116224;27;45375;-62
2022/12/02 08:15:47;;;;;;;;;66.33;46.33;;;;;;;;5116011;27;46734;-61
2022/12/02 08:18:12;;;;;;;;;68.00;50.33;;;;;;;;5115684;27;45385;-61
2022/12/02 08:20:38;;;;;;;;;70.67;50.33;;;;;;;;5115711;27;45301;-62
2022/12/02 08:23:04;;;;;;;;;67.67;52.00;;;;;;;;5115886;27;45268;-61
2022/12/02 08:25:29;;;;;;;;;69.33;47.00;;;;;;;;5115740;27;45405;-61
2022/12/02 08:27:54;;;;;;;;;63.67;47.67;;;;;;;;5115763;27;45446;-62
2022/12/02 08:30:20;;;;;;;;;64.33;48.00;;;;;;;;5115894;27;45329;-61
2022/12/02 08:32:45;;;;;;;;;72.33;51.00;;;;;;;;5116080;27;45574;-61
2022/12/02 08:35:11;;;;;;;;;69.33;52.00;;;;;;;;5115101;27;47483;-61
2022/12/02 08:37:37;;;;;;;;;70.67;50.67;;;;;;;;5115575;27;45801;-62
2022/12/02 08:40:02;;;;;;;;;74.00;54.00;;;;;;;;5115496;27;45444;-62
2022/12/02 08:42:28;;;;;;;;;62.00;49.33;;;;;;;;5115765;27;45413;-62
2022/12/02 08:44:53;;;;;;;;;71.67;51.33;;;;;;;;5115133;27;47534;-62
2022/12/02 08:47:18;;;;;;;;;40.00;21.00;;;;;;;;5114124;27;45849;-61
2022/12/02 08:49:43;;;;;;;;;66.00;48.33;;;;;;;;5115600;27;45781;-61
2022/12/02 08:52:09;;;;;;;;;63.00;48.00;;;;;;;;5118057;27;45424;-61
2022/12/02 08:54:34;;;;;;;;;71.67;51.67;;;;;;;;5119065;27;45350;-62
2022/12/02 08:57:00;;;;;;;;;62.33;46.33;;;;;;;;5118846;27;45465;-61
2022/12/02 08:59:26;;;;;;;;;67.33;46.33;;;;;;;;5119203;27;45425;-61
2022/12/02 09:01:51;;;;;;;;;63.00;49.67;;;;;;;;5119418;27;45675;-61
2022/12/02 09:04:17;;;;;;;;;68.00;49.00;;;;;;;;5118765;27;45412;-61
2022/12/02 09:06:42;;;;;;;;;66.00;48.67;;;;;;;;5119075;27;45470;-61
2022/12/02 09:09:07;;;;;;;;;67.33;49.00;;;;;;;;5118845;27;45727;-61
2022/12/02 09:11:33;;;;;;;;;63.33;50.00;;;;;;;;5118960;27;45322;-61
2022/12/02 09:13:58;;;;;;;;;65.00;47.00;;;;;;;;5118641;27;45692;-61
2022/12/02 09:16:23;;;;;;;;;67.67;50.67;;;;;;;;5118822;27;45349;-61
2022/12/02 09:18:50;;;;;;;;;64.00;46.00;;;;;;;;5118853;27;45376;-62
2022/12/02 09:21:15;;;;;;;;;62.33;46.33;;;;;;;;5118926;27;45455;-62
2022/12/02 09:23:40;;;;;;;;;63.00;45.33;;;;;;;;5118412;27;45460;-61
2022/12/02 09:26:05;;;;;;;;;71.67;48.33;;;;;;;;5118375;27;45407;-61
2022/12/02 09:28:30;;;;;;;;;57.00;45.67;;;;;;;;5118884;27;45685;-61
2022/12/02 09:30:56;;;;;;;;;65.00;50.33;;;;;;;;5118810;27;45369;-61
2022/12/02 09:33:21;;;;;;;;;65.00;49.00;;;;;;;;5118171;27;45533;-61
2022/12/02 09:35:46;;;;;;;;;57.33;44.33;;;;;;;;5118368;27;45441;-62
2022/12/02 09:38:11;;;;;;;;;68.00;50.33;;;;;;;;5118428;27;45601;-61
2022/12/02 09:40:37;;;;;;;;;64.00;48.33;;;;;;;;5118292;27;45732;-61
2022/12/02 09:43:03;;;;;;;;;60.33;41.00;;;;;;;;5118351;27;46185;-61
2022/12/02 09:45:29;;;;;;;;;56.00;44.00;;;;;;;;5118347;27;45676;-61
2022/12/02 09:47:54;;;;;;;;;67.33;49.33;;;;;;;;5118044;27;45323;-61
2022/12/02 09:50:19;;;;;;;;;71.67;51.33;;;;;;;;5118422;27;45866;-61
2022/12/02 09:52:45;;;;;;;;;64.00;48.00;;;;;;;;5118259;27;46623;-61
2022/12/02 09:55:15;;;;;;;;;71.00;52.00;;;;;;;;5118050;27;45425;-61
2022/12/02 09:57:40;;;;;;;;;71.00;52.00;;;;;;;;5117797;27;45780;-61
2022/12/02 10:00:08;;;;;;;;;72.00;51.00;;;;;;;;5118229;27;45382;-61
2022/12/02 10:02:38;;;;;;;;;69.67;52.33;;;;;;;;5116770;27;46605;-61
2022/12/02 10:05:10;;;;;;;;;66.33;50.00;;;;;;;;5117876;27;45321;-62
2022/12/02 10:07:35;;;;;;;;;66.67;48.00;;;;;;;;5118266;27;45735;-61
2022/12/02 10:10:01;;;;;;;;;70.67;51.00;;;;;;;;5117906;27;45789;-61
2022/12/02 10:12:26;;;;;;;;;64.67;48.67;;;;;;;;5117863;27;45421;-61
2022/12/02 10:14:51;;;;;;;;;69.00;50.33;;;;;;;;5117608;27;45713;-61
2022/12/02 10:17:18;;;;;;;;;65.33;50.67;;;;;;;;5118071;27;45763;-61
2022/12/02 10:19:44;;;;;;;;;75.00;54.00;;;;;;;;5118107;27;45380;-61
2022/12/02 10:22:17;;;;;;;;;67.00;50.67;;;;;;;;5117343;27;45592;-61
2022/12/02 10:24:42;;;;;;;;;74.33;50.33;;;;;;;;5117855;27;45375;-61
2022/12/02 10:27:08;;;;;;;;;67.33;48.33;;;;;;;;5117377;27;45675;-61
2022/12/02 10:29:33;;;;;;;;;64.33;48.67;;;;;;;;5117850;27;45416;-61
2022/12/02 10:32:06;;;;;;;;;68.67;48.67;;;;;;;;5117186;27;45728;-61
2022/12/02 10:34:33;;;;;;;;;67.67;47.33;;;;;;;;5117618;27;45422;-61
2022/12/02 10:37:14;;;;;;;;;61.67;46.33;;;;;;;;5117160;27;45397;-61
2022/12/02 10:39:39;;;;;;;;;60.00;47.00;;;;;;;;5117599;27;45323;-61
2022/12/02 10:42:08;;;;;;;;;68.67;47.33;;;;;;;;5116959;27;45914;-60
2022/12/02 10:44:34;;;;;;;;;63.67;47.00;;;;;;;;5117176;27;45334;-61
2022/12/02 10:47:19;;;;;;;;;64.67;49.67;;;;;;;;5117626;27;45621;-61
2022/12/02 10:49:45;;;;;;;;;63.33;45.00;;;;;;;;5117575;27;45366;-60
2022/12/02 10:52:10;;;;;;;;;61.67;44.67;;;;;;;;5116750;27;45406;-61
2022/12/02 10:54:38;;;;;;;;;63.33;45.67;;;;;;;;5117306;27;45480;-61
2022/12/02 10:57:03;;;;;;;;;67.33;47.00;;;;;;;;5117215;27;45768;-61
2022/12/02 10:59:30;;;;;;;;;55.67;44.33;;;;;;;;5116809;27;45729;-61
2022/12/02 11:01:55;;;;;;;;;64.33;43.00;;;;;;;;5116993;27;45517;-60
2022/12/02 11:04:21;;;;;;;;;55.67;38.33;;;;;;;;5116659;27;45399;-60
2022/12/02 11:06:46;;;;;;;;;65.33;44.33;;;;;;;;5117363;27;45370;-60
2022/12/02 11:09:22;;;;;;;;;64.00;44.33;;;;;;;;5117429;27;45694;-61
2022/12/02 11:11:48;;;;;;;;;59.33;43.33;;;;;;;;5116493;27;45709;-61
2022/12/02 11:14:33;;;;;;;;;54.67;39.33;;;;;;;;5116368;27;45451;-61
2022/12/02 11:17:05;;;;;;;;;59.67;40.67;;;;;;;;5116863;27;45390;-61
2022/12/02 11:19:33;;;;;;;;;56.33;40.67;;;;;;;;5116752;27;45403;-61
2022/12/02 11:21:58;;;;;;;;;56.33;37.00;;;;;;;;5116628;27;46596;-61
2022/12/02 11:24:26;;;;;;;;;49.33;35.33;;;;;;;;5116502;27;45464;-61
2022/12/02 11:27:03;;;;;;;;;64.67;42.00;;;;;;;;5116716;27;45727;-61
2022/12/02 11:29:31;;;;;;;;;61.00;42.67;;;;;;;;5116934;27;45315;-61
2022/12/02 11:32:16;;;;;;;;;59.33;44.67;;;;;;;;5116551;27;45915;-61
2022/12/02 11:34:41;;;;;;;;;63.33;41.67;;;;;;;;5116353;27;45285;-60
2022/12/02 11:37:32;;;;;;;;;59.33;45.00;;;;;;;;5116499;27;45629;-61
2022/12/02 11:40:00;;;;;;;;;44.67;35.67;;;;;;;;5108961;27;45687;-60
2022/12/02 11:42:36;;;;;;;;;54.67;38.00;;;;;;;;5116069;27;47677;-61
2022/12/02 11:45:16;;;;;;;;;51.67;35.00;;;;;;;;5116606;27;45518;-61
2022/12/02 11:47:53;;;;;;;;;46.67;33.00;;;;;;;;5116060;27;45806;-61
2022/12/02 11:50:24;;;;;;;;;50.67;39.00;;;;;;;;5116546;27;45402;-61
2022/12/02 11:52:51;;;;;;;;;55.67;42.33;;;;;;;;5115956;27;45449;-61
2022/12/02 11:55:18;;;;;;;;;51.33;38.00;;;;;;;;5116316;27;45489;-60
2022/12/02 11:58:10;;;;;;;;;56.33;41.67;;;;;;;;5115939;27;45384;-60
2022/12/02 12:00:35;;;;;;;;;56.33;38.67;;;;;;;;5052818;28;45430;-60
2022/12/02 12:03:03;;;;;;;;;53.00;42.33;;;;;;;;5051943;28;46313;-60
2022/12/02 12:05:29;;;;;;;;;56.33;38.33;;;;;;;;5052585;28;45528;-61
2022/12/02 12:07:54;;;;;;;;;60.00;41.33;;;;;;;;5052684;28;45461;-61
2022/12/02 12:10:25;;;;;;;;;64.00;40.00;;;;;;;;5052511;28;45539;-60
2022/12/02 12:13:09;;;;;;;;;49.00;38.00;;;;;;;;5052038;28;46755;-61
2022/12/02 12:15:51;;;;;;;;;54.33;39.67;;;;;;;;5052317;28;45388;-61
2022/12/02 12:18:35;;;;;;;;;54.00;37.33;;;;;;;;5052124;28;45531;-61
2022/12/02 12:21:00;;;;;;;;;63.33;43.00;;;;;;;;5052125;28;45546;-60
2022/12/02 12:23:26;;;;;;;;;61.67;43.67;;;;;;;;5051900;28;45344;-61
2022/12/02 12:25:52;;;;;;;;;66.33;47.00;;;;;;;;5051361;28;45860;-60
2022/12/02 12:28:25;;;;;;;;;60.67;44.00;;;;;;;;5051582;28;45409;-60
2022/12/02 12:30:50;;;;;;;;;68.00;41.67;;;;;;;;5051787;28;45416;-60
2022/12/02 12:33:15;;;;;;;;;64.00;46.33;;;;;;;;5051767;28;46786;-60
2022/12/02 12:35:41;;;;;;;;;69.33;49.00;;;;;;;;5051951;28;45480;-61
2022/12/02 12:38:06;;;;;;;;;64.33;47.67;;;;;;;;5101964;27;45460;-61
2022/12/02 12:40:31;;;;;;;;;74.00;51.67;;;;;;;;5115786;27;45464;-60
2022/12/02 12:42:56;;;;;;;;;68.33;50.67;;;;;;;;5115309;27;45486;-61
2022/12/02 12:45:22;;;;;;;;;63.33;49.00;;;;;;;;5115320;27;45429;-61
2022/12/02 12:47:47;;;;;;;;;66.00;44.33;;;;;;;;5115441;27;45497;-61
2022/12/02 12:50:12;;;;;;;;;67.00;47.67;;;;;;;;5115747;27;45405;-60
2022/12/02 12:52:37;;;;;;;;;68.67;48.00;;;;;;;;5114837;27;46490;-61
2022/12/02 12:55:03;;;;;;;;;59.33;46.00;;;;;;;;5115569;27;45644;-60
2022/12/02 12:57:28;;;;;;;;;62.67;44.33;;;;;;;;5115170;27;45351;-60
2022/12/02 12:59:53;;;;;;;;;59.33;42.00;;;;;;;;5115241;27;45435;-61
2022/12/02 13:02:18;;;;;;;;;63.33;40.67;;;;;;;;5115442;27;47156;-60
2022/12/02 13:04:44;;;;;;;;;71.67;47.00;;;;;;;;5115101;27;45684;-61
2022/12/02 13:07:09;;;;;;;;;54.00;42.67;;;;;;;;5115465;27;45377;-60
2022/12/02 13:09:34;;;;;;;;;64.67;44.33;;;;;;;;5115256;27;45662;-61
2022/12/02 13:11:59;;;;;;;;;60.00;47.00;;;;;;;;5115137;27;46465;-60
2022/12/02 13:14:24;;;;;;;;;56.67;40.67;;;;;;;;5115107;27;45350;-61
2022/12/02 13:16:50;;;;;;;;;50.67;37.00;;;;;;;;5115350;27;45394;-61
2022/12/02 13:19:15;;;;;;;;;58.00;41.00;;;;;;;;5115123;27;45663;-61
2022/12/02 13:21:40;;;;;;;;;54.33;41.67;;;;;;;;5114919;27;46212;-60
2022/12/02 13:24:06;;;;;;;;;61.33;40.33;;;;;;;;5114939;27;45464;-60
2022/12/02 13:26:31;;;;;;;;;62.33;42.67;;;;;;;;5115225;27;45513;-61
2022/12/02 13:28:56;;;;;;;;;60.00;40.67;;;;;;;;5115098;27;45753;-60
2022/12/02 13:31:21;;;;;;;;;67.33;43.67;;;;;;;;5114800;27;46205;-61
2022/12/02 13:33:47;;;;;;;;;48.00;37.33;;;;;;;;5114901;27;45390;-61
2022/12/02 13:36:12;;;;;;;;;46.67;40.00;;;;;;;;5114980;27;45468;-60
2022/12/02 13:38:37;;;;;;;;;62.33;42.67;;;;;;;;5118211;27;45476;-61
2022/12/02 13:41:03;;;;;;;;;42.33;33.67;;;;;;;;5118385;27;47034;-61
2022/12/02 13:43:28;;;;;;;;;51.00;39.00;;;;;;;;5118256;27;45320;-61
2022/12/02 13:45:53;;;;;;;;;57.33;40.67;;;;;;;;5118407;27;45448;-60
2022/12/02 13:48:19;;;;;;;;;48.67;38.33;;;;;;;;5118674;27;45432;-61
2022/12/02 13:50:44;;;;;;;;;54.67;39.33;;;;;;;;5118272;27;47297;-61
2022/12/02 13:53:09;;;;;;;;;40.33;31.67;;;;;;;;5118063;27;45744;-61
2022/12/02 13:55:34;;;;;;;;;50.00;37.33;;;;;;;;5118305;27;45497;-61
2022/12/02 13:57:59;;;;;;;;;51.00;35.33;;;;;;;;5117792;27;45521;-60
2022/12/02 14:00:25;;;;;;;;;49.67;37.33;;;;;;;;5117986;27;46358;-60
2022/12/02 14:02:50;;;;;;;;;53.00;38.00;;;;;;;;5118013;27;45424;-61
2022/12/02 14:05:15;;;;;;;;;47.33;35.00;;;;;;;;5118042;27;45391;-61
2022/12/02 14:07:41;;;;;;;;;43.67;37.67;;;;;;;;5118447;27;45342;-61
2022/12/02 14:10:06;;;;;;;;;54.67;35.67;;;;;;;;5116307;27;47403;-61
2022/12/02 14:12:31;;;;;;;;;49.67;36.33;;;;;;;;5117879;27;45804;-60
2022/12/02 14:14:57;;;;;;;;;43.33;36.00;;;;;;;;5117940;27;45560;-61
2022/12/02 14:17:22;;;;;;;;;43.67;34.33;;;;;;;;5117830;27;45414;-60